createdAt,value
2019-05-01T00:02:34.197Z,8.08
2019-05-01T00:05:17.659Z,8.07
2019-05-01T00:07:47.011Z,8.18
2019-05-01T00:10:16.803Z,8.28
2019-05-01T00:12:46.344Z,8.31
2019-05-01T00:15:15.686Z,8.33
2019-05-01T00:17:46.657Z,8.37
2019-05-01T00:20:16.264Z,8.46
2019-05-01T00:22:45.604Z,8.39
2019-05-01T00:25:14.930Z,8.23
2019-05-01T00:27:44.290Z,8.27
2019-05-01T00:30:28.831Z,8.39
2019-05-01T00:32:47.715Z,8.32
2019-05-01T00:35:17.475Z,8.33
2019-05-01T00:37:46.809Z,8.38
2019-05-01T00:40:16.129Z,8.32
2019-05-01T00:42:45.499Z,8.32
2019-05-01T00:45:15.251Z,8.22
2019-05-01T00:47:44.574Z,8.19
2019-05-01T00:50:13.901Z,8.26
2019-05-01T00:52:43.210Z,8.36
2019-05-01T00:55:30.375Z,8.41
2019-05-01T00:58:07.541Z,8.41
2019-05-01T01:00:44.602Z,8.36
2019-05-01T01:03:13.931Z,8.47
2019-05-01T01:05:43.294Z,8.53
2019-05-01T01:08:12.606Z,8.55
2019-05-01T01:10:41.923Z,8.54
2019-05-01T01:13:11.283Z,8.57
2019-05-01T01:15:40.618Z,8.56
2019-05-01T01:18:09.948Z,8.58
2019-05-01T01:20:39.289Z,8.53
2019-05-01T01:23:08.607Z,8.58
2019-05-01T01:25:38.020Z,8.57
2019-05-01T01:28:07.397Z,8.66
2019-05-01T01:30:37.041Z,8.66
2019-05-01T01:33:06.564Z,8.75
2019-05-01T01:35:35.874Z,8.73
2019-05-01T01:38:05.205Z,8.82
2019-05-01T01:40:35.978Z,8.87
2019-05-01T01:43:24.065Z,8.89
2019-05-01T01:45:54.830Z,8.83
2019-05-01T01:48:24.144Z,9.02
2019-05-01T01:50:53.482Z,9.16
2019-05-01T01:53:23.714Z,9.27
2019-05-01T01:55:54.346Z,9.60
2019-05-01T01:58:25.468Z,10.14
2019-05-01T02:01:09.546Z,10.75
2019-05-01T02:03:40.837Z,11.02
2019-05-01T02:06:10.156Z,11.23
2019-05-01T02:08:39.714Z,11.31
2019-05-01T02:11:09.135Z,11.42
2019-05-01T02:13:38.787Z,11.47
2019-05-01T02:16:08.119Z,11.50
2019-05-01T02:18:37.538Z,11.54
2019-05-01T02:21:06.888Z,11.58
2019-05-01T02:23:36.233Z,11.64
2019-05-01T02:26:06.690Z,11.64
2019-05-01T02:28:45.319Z,11.66
2019-05-01T02:31:28.101Z,11.65
2019-05-01T02:33:56.802Z,11.67
2019-05-01T02:36:28.080Z,11.69
2019-05-01T02:38:58.646Z,11.70
2019-05-01T02:41:31.643Z,11.69
2019-05-01T02:44:07.588Z,11.68
2019-05-01T02:46:37.869Z,11.68
2019-05-01T02:49:15.398Z,11.67
2019-05-01T02:51:46.030Z,11.65
2019-05-01T02:54:18.530Z,11.65
2019-05-01T02:56:55.471Z,11.63
2019-05-01T02:59:28.189Z,11.59
2019-05-01T03:01:58.234Z,11.55
2019-05-01T03:04:28.001Z,11.52
2019-05-01T03:06:57.626Z,11.49
2019-05-01T03:09:27.480Z,11.49
2019-05-01T03:11:58.335Z,11.47
2019-05-01T03:14:30.645Z,11.47
2019-05-01T03:17:29.013Z,11.45
2019-05-01T03:20:09.369Z,11.43
2019-05-01T03:23:07.153Z,11.40
2019-05-01T03:25:36.727Z,11.42
2019-05-01T03:28:06.517Z,11.43
2019-05-01T03:30:36.152Z,11.42
2019-05-01T03:33:06.323Z,11.42
2019-05-01T03:35:35.848Z,11.40
2019-05-01T03:38:05.185Z,11.40
2019-05-01T03:40:34.822Z,11.41
2019-05-01T03:43:04.368Z,11.44
2019-05-01T03:45:34.412Z,11.45
2019-05-01T03:48:04.967Z,11.48
2019-05-01T03:50:34.578Z,11.49
2019-05-01T03:53:04.006Z,11.52
2019-05-01T03:55:33.456Z,11.46
2019-05-01T03:58:03.333Z,11.45
2019-05-01T04:00:50.014Z,11.44
2019-05-01T04:03:29.438Z,11.41
2019-05-01T04:05:59.201Z,11.35
2019-05-01T04:08:29.240Z,11.35
2019-05-01T04:10:58.690Z,11.34
2019-05-01T04:13:28.124Z,11.41
2019-05-01T04:15:57.754Z,11.54
2019-05-01T04:18:28.339Z,11.59
2019-05-01T04:20:58.527Z,11.67
2019-05-01T04:23:27.937Z,11.76
2019-05-01T04:25:57.664Z,11.83
2019-05-01T04:28:48.921Z,12.13
2019-05-01T04:31:53.045Z,13.82
2019-05-01T04:34:29.209Z,15.48
2019-05-01T04:37:01.013Z,16.37
2019-05-01T04:39:30.456Z,16.91
2019-05-01T04:41:59.868Z,17.00
2019-05-01T04:44:29.424Z,17.07
2019-05-01T04:46:59.441Z,16.84
2019-05-01T04:49:29.361Z,16.54
2019-05-01T04:51:58.885Z,15.28
2019-05-01T04:54:28.514Z,14.22
2019-05-01T04:56:58.062Z,13.78
2019-05-01T04:59:27.548Z,13.66
2019-05-01T05:02:02.697Z,13.96
2019-05-01T05:04:32.347Z,13.73
2019-05-01T05:07:02.862Z,14.14
2019-05-01T05:09:57.459Z,13.82
2019-05-01T05:12:39.889Z,13.71
2019-05-01T05:15:22.944Z,13.55
2019-05-01T05:17:52.775Z,13.57
2019-05-01T05:20:22.130Z,13.83
2019-05-01T05:22:51.874Z,13.91
2019-05-01T05:25:21.389Z,13.86
2019-05-01T05:27:51.718Z,13.70
2019-05-01T05:30:22.121Z,13.70
2019-05-01T05:32:53.080Z,13.74
2019-05-01T05:35:24.817Z,13.56
2019-05-01T05:38:09.298Z,13.60
2019-05-01T05:40:40.233Z,13.69
2019-05-01T05:43:10.217Z,13.82
2019-05-01T05:45:40.073Z,13.96
2019-05-01T05:48:09.997Z,14.20
2019-05-01T05:50:50.818Z,14.60
2019-05-01T05:53:24.746Z,14.93
2019-05-01T05:55:57.159Z,15.13
2019-05-01T05:58:33.674Z,16.12
2019-05-01T06:01:19.364Z,16.86
2019-05-01T06:04:25.855Z,18.18
2019-05-01T06:07:23.961Z,19.01
2019-05-01T06:10:18.536Z,18.42
2019-05-01T06:13:12.134Z,18.57
2019-05-01T06:15:54.380Z,18.58
2019-05-01T06:18:34.871Z,19.17
2019-05-01T06:21:21.032Z,18.98
2019-05-01T06:24:08.297Z,19.84
2019-05-01T06:26:39.522Z,19.82
2019-05-01T06:29:08.978Z,19.04
2019-05-01T06:31:38.448Z,19.23
2019-05-01T06:34:07.794Z,18.70
2019-05-01T06:36:37.275Z,17.96
2019-05-01T06:39:11.845Z,16.41
2019-05-01T06:41:43.977Z,17.36
2019-05-01T06:44:39.231Z,18.34
2019-05-01T06:47:19.778Z,18.95
2019-05-01T06:50:06.017Z,19.22
2019-05-01T06:52:35.821Z,18.29
2019-05-01T06:55:05.373Z,18.44
2019-05-01T06:57:38.501Z,18.05
2019-05-01T07:00:09.430Z,18.35
2019-05-01T07:02:39.228Z,18.33
2019-05-01T07:05:14.422Z,18.13
2019-05-01T07:07:43.128Z,17.00
2019-05-01T07:10:11.876Z,16.48
2019-05-01T07:12:41.939Z,17.25
2019-05-01T07:15:11.352Z,17.59
2019-05-01T07:17:43.833Z,18.49
2019-05-01T07:20:47.336Z,16.81
2019-05-01T07:23:19.691Z,17.57
2019-05-01T07:25:52.522Z,19.32
2019-05-01T07:28:22.770Z,19.75
2019-05-01T07:31:01.023Z,19.04
2019-05-01T07:33:30.831Z,18.89
2019-05-01T07:36:06.934Z,18.76
2019-05-01T07:38:38.810Z,17.88
2019-05-01T07:41:08.887Z,19.24
2019-05-01T07:43:55.047Z,18.93
2019-05-01T07:46:35.029Z,19.33
2019-05-01T07:49:04.704Z,20.20
2019-05-01T07:51:37.844Z,19.99
2019-05-01T07:54:08.890Z,20.49
2019-05-01T07:56:37.212Z,20.81
2019-05-01T07:59:06.824Z,20.38
2019-05-01T08:02:04.254Z,20.38
2019-05-01T08:04:36.879Z,20.87
2019-05-01T08:07:04.963Z,21.09
2019-05-01T08:09:34.472Z,20.64
2019-05-01T08:12:03.915Z,20.73
2019-05-01T08:14:33.323Z,20.24
2019-05-01T08:17:02.806Z,20.11
2019-05-01T08:19:53.844Z,20.99
2019-05-01T08:22:25.611Z,21.83
2019-05-01T08:24:58.807Z,21.72
2019-05-01T08:27:44.437Z,21.41
2019-05-01T08:30:33.622Z,19.88
2019-05-01T08:33:27.713Z,18.49
2019-05-01T08:35:57.071Z,18.33
2019-05-01T08:38:29.854Z,17.85
2019-05-01T08:40:57.525Z,17.42
2019-05-01T08:43:26.895Z,17.17
2019-05-01T08:46:16.436Z,17.10
2019-05-01T08:48:56.300Z,17.13
2019-05-01T08:51:30.132Z,17.38
2019-05-01T08:53:57.764Z,17.42
2019-05-01T08:56:28.285Z,17.40
2019-05-01T08:58:57.639Z,17.39
2019-05-01T09:01:27.920Z,17.26
2019-05-01T09:03:57.575Z,17.35
2019-05-01T09:06:34.473Z,17.65
2019-05-01T09:08:58.012Z,17.62
2019-05-01T09:11:27.373Z,17.94
2019-05-01T09:13:58.980Z,18.04
2019-05-01T09:16:28.307Z,17.69
2019-05-01T09:18:59.069Z,17.54
2019-05-01T09:21:28.451Z,17.33
2019-05-01T09:23:57.804Z,17.54
2019-05-01T09:26:52.351Z,17.98
2019-05-01T09:29:26.696Z,19.42
2019-05-01T09:31:56.079Z,20.40
2019-05-01T09:34:25.772Z,21.11
2019-05-01T09:36:57.536Z,20.58
2019-05-01T09:39:27.898Z,20.97
2019-05-01T09:41:57.740Z,21.62
2019-05-01T09:44:27.153Z,22.30
2019-05-01T09:46:56.525Z,21.38
2019-05-01T09:49:25.951Z,21.82
2019-05-01T09:52:26.374Z,22.40
2019-05-01T09:55:04.245Z,22.13
2019-05-01T09:57:36.398Z,22.38
2019-05-01T10:00:07.050Z,22.65
2019-05-01T10:02:37.540Z,22.62
2019-05-01T10:05:07.979Z,23.03
2019-05-01T10:07:37.408Z,21.61
2019-05-01T10:10:07.980Z,20.99
2019-05-01T10:12:37.349Z,21.91
2019-05-01T10:15:06.799Z,22.22
2019-05-01T10:17:36.150Z,22.36
2019-05-01T10:20:05.687Z,22.72
2019-05-01T10:22:37.493Z,21.90
2019-05-01T10:25:08.596Z,21.65
2019-05-01T10:27:39.676Z,22.81
2019-05-01T10:30:18.603Z,23.13
2019-05-01T10:32:52.851Z,22.17
2019-05-01T10:35:44.612Z,22.70
2019-05-01T10:38:14.021Z,21.91
2019-05-01T10:40:43.355Z,20.39
2019-05-01T10:43:13.091Z,20.02
2019-05-01T10:45:42.470Z,21.46
2019-05-01T10:48:11.860Z,22.23
2019-05-01T10:50:41.182Z,22.21
2019-05-01T10:53:10.557Z,22.26
2019-05-01T10:55:39.993Z,21.14
2019-05-01T10:58:12.902Z,20.45
2019-05-01T11:00:42.294Z,22.02
2019-05-01T11:03:11.850Z,22.38
2019-05-01T11:05:41.231Z,23.72
2019-05-01T11:08:17.182Z,23.54
2019-05-01T11:10:48.342Z,23.03
2019-05-01T11:13:22.734Z,23.56
2019-05-01T11:15:58.546Z,23.32
2019-05-01T11:18:39.615Z,22.33
2019-05-01T11:21:11.264Z,22.89
2019-05-01T11:23:40.651Z,23.14
2019-05-01T11:26:11.221Z,22.95
2019-05-01T11:28:40.477Z,23.19
2019-05-01T11:31:11.781Z,23.58
2019-05-01T11:34:05.901Z,23.54
2019-05-01T11:37:00.266Z,23.45
2019-05-01T11:39:35.891Z,23.12
2019-05-01T11:42:07.280Z,23.88
2019-05-01T11:44:36.625Z,23.98
2019-05-01T11:47:06.514Z,24.42
2019-05-01T11:49:35.855Z,24.55
2019-05-01T11:52:05.205Z,23.54
2019-05-01T11:54:34.645Z,23.55
2019-05-01T11:57:04.317Z,22.82
2019-05-01T11:59:34.090Z,22.99
2019-05-01T12:02:03.438Z,21.53
2019-05-01T12:04:32.758Z,21.99
2019-05-01T12:07:02.109Z,22.97
2019-05-01T12:09:31.461Z,23.55
2019-05-01T12:12:04.323Z,22.17
2019-05-01T12:14:33.674Z,22.20
2019-05-01T12:17:09.305Z,20.80
2019-05-01T12:19:38.619Z,19.91
2019-05-01T12:22:08.068Z,19.73
2019-05-01T12:24:40.324Z,19.79
2019-05-01T12:27:10.031Z,19.23
2019-05-01T12:29:39.482Z,20.44
2019-05-01T12:32:08.809Z,21.23
2019-05-01T12:34:38.513Z,21.76
2019-05-01T12:37:25.766Z,21.48
2019-05-01T12:39:55.156Z,20.62
2019-05-01T12:42:37.406Z,19.89
2019-05-01T12:45:08.662Z,20.43
2019-05-01T12:48:00.212Z,20.94
2019-05-01T12:50:29.555Z,21.38
2019-05-01T12:53:14.436Z,21.15
2019-05-01T12:56:05.801Z,21.43
2019-05-01T12:58:37.029Z,20.93
2019-05-01T13:01:06.493Z,21.12
2019-05-01T13:03:38.014Z,20.92
2019-05-01T13:06:07.480Z,21.01
2019-05-01T13:08:36.881Z,21.27
2019-05-01T13:11:06.274Z,21.20
2019-05-01T13:13:35.678Z,20.66
2019-05-01T13:16:05.042Z,20.63
2019-05-01T13:18:34.811Z,20.62
2019-05-01T13:21:05.119Z,20.85
2019-05-01T13:23:34.993Z,20.19
2019-05-01T13:26:17.727Z,19.61
2019-05-01T13:28:58.305Z,19.44
2019-05-01T13:31:52.465Z,19.63
2019-05-01T13:34:22.119Z,19.39
2019-05-01T13:37:02.309Z,19.21
2019-05-01T13:39:23.405Z,19.31
2019-05-01T13:41:53.066Z,19.56
2019-05-01T13:44:22.491Z,19.62
2019-05-01T13:46:52.346Z,19.47
2019-05-01T13:49:21.720Z,19.09
2019-05-01T13:51:56.644Z,18.94
2019-05-01T13:54:26.137Z,19.27
2019-05-01T13:56:55.491Z,19.34
2019-05-01T13:59:24.857Z,19.13
2019-05-01T14:01:54.539Z,19.11
2019-05-01T14:04:24.658Z,19.22
2019-05-01T14:06:54.362Z,19.30
2019-05-01T14:09:32.390Z,19.25
2019-05-01T14:12:01.729Z,18.94
2019-05-01T14:14:31.076Z,18.59
2019-05-01T14:17:00.458Z,18.40
2019-05-01T14:19:31.611Z,18.39
2019-05-01T14:22:13.746Z,18.36
2019-05-01T14:24:47.441Z,18.12
2019-05-01T14:27:17.859Z,18.12
2019-05-01T14:29:47.250Z,17.87
2019-05-01T14:32:23.006Z,17.85
2019-05-01T14:34:52.615Z,17.83
2019-05-01T14:37:29.581Z,17.82
2019-05-01T14:39:54.622Z,17.66
2019-05-01T14:42:28.266Z,17.68
2019-05-01T14:44:57.800Z,17.53
2019-05-01T14:47:27.362Z,17.36
2019-05-01T14:49:56.698Z,17.32
2019-05-01T14:52:26.793Z,17.54
2019-05-01T14:54:57.004Z,17.73
2019-05-01T14:57:28.729Z,16.53
2019-05-01T14:59:59.569Z,17.72
2019-05-01T15:02:28.917Z,17.57
2019-05-01T15:04:58.277Z,17.54
2019-05-01T15:07:27.619Z,17.51
2019-05-01T15:09:56.974Z,17.42
2019-05-01T15:12:26.309Z,17.40
2019-05-01T15:15:20.718Z,17.38
2019-05-01T15:18:04.059Z,17.30
2019-05-01T15:20:33.381Z,17.20
2019-05-01T15:23:04.509Z,17.09
2019-05-01T15:25:33.864Z,17.16
2019-05-01T15:28:03.201Z,17.09
2019-05-01T15:30:32.571Z,17.00
2019-05-01T15:33:01.936Z,17.01
2019-05-01T15:35:31.304Z,16.99
2019-05-01T15:38:00.650Z,17.02
2019-05-01T15:40:38.800Z,17.01
2019-05-01T15:43:26.116Z,16.99
2019-05-01T15:45:55.656Z,16.89
2019-05-01T15:48:25.007Z,16.78
2019-05-01T15:50:54.371Z,16.90
2019-05-01T15:53:24.131Z,17.05
2019-05-01T15:55:53.482Z,17.13
2019-05-01T15:58:22.845Z,17.18
2019-05-01T16:00:52.200Z,17.17
2019-05-01T16:03:21.526Z,17.13
2019-05-01T16:05:50.882Z,17.04
2019-05-01T16:08:20.231Z,17.05
2019-05-01T16:11:05.627Z,17.06
2019-05-01T16:13:35.490Z,16.95
2019-05-01T16:16:04.868Z,16.93
2019-05-01T16:18:34.225Z,16.84
2019-05-01T16:21:03.639Z,16.82
2019-05-01T16:23:33.001Z,16.80
2019-05-01T16:26:02.420Z,16.63
2019-05-01T16:28:44.569Z,16.58
2019-05-01T16:31:14.099Z,16.47
2019-05-01T16:33:43.548Z,16.38
2019-05-01T16:36:12.890Z,16.27
2019-05-01T16:39:11.304Z,16.17
2019-05-01T16:41:42.222Z,16.07
2019-05-01T16:44:13.613Z,15.94
2019-05-01T16:46:42.938Z,15.92
2019-05-01T16:49:12.389Z,15.88
2019-05-01T16:51:41.848Z,15.87
2019-05-01T16:54:11.232Z,15.81
2019-05-01T16:56:47.507Z,15.73
2019-05-01T16:59:30.741Z,14.62
2019-05-01T17:02:07.644Z,15.67
2019-05-01T17:04:43.071Z,15.53
2019-05-01T17:07:37.261Z,15.44
2019-05-01T17:10:34.724Z,15.34
2019-05-01T17:13:06.054Z,15.26
2019-05-01T17:15:40.950Z,15.14
2019-05-01T17:18:10.609Z,15.07
2019-05-01T17:20:40.104Z,15.01
2019-05-01T17:23:09.425Z,14.92
2019-05-01T17:25:38.912Z,14.76
2019-05-01T17:28:16.129Z,14.69
2019-05-01T17:31:00.223Z,14.59
2019-05-01T17:33:31.559Z,14.54
2019-05-01T17:36:04.328Z,14.47
2019-05-01T17:38:49.233Z,14.43
2019-05-01T17:41:27.094Z,14.36
2019-05-01T17:43:56.887Z,14.26
2019-05-01T17:46:41.884Z,14.22
2019-05-01T17:49:13.323Z,14.14
2019-05-01T17:51:46.316Z,14.10
2019-05-01T17:54:13.912Z,14.09
2019-05-01T17:56:48.499Z,14.00
2019-05-01T17:59:17.735Z,13.93
2019-05-01T18:01:58.168Z,13.85
2019-05-01T18:04:42.395Z,13.79
2019-05-01T18:07:11.836Z,13.70
2019-05-01T18:09:41.192Z,13.67
2019-05-01T18:12:10.576Z,13.57
2019-05-01T18:14:39.900Z,13.56
2019-05-01T18:17:09.579Z,13.58
2019-05-01T18:19:39.044Z,13.59
2019-05-01T18:22:16.208Z,13.59
2019-05-01T18:25:03.530Z,13.63
2019-05-01T18:28:01.008Z,13.51
2019-05-01T18:30:35.501Z,13.53
2019-05-01T18:33:05.064Z,13.46
2019-05-01T18:35:34.471Z,13.39
2019-05-01T18:38:35.177Z,13.38
2019-05-01T18:41:18.657Z,13.38
2019-05-01T18:43:47.954Z,13.36
2019-05-01T18:46:17.481Z,13.29
2019-05-01T18:48:46.943Z,13.28
2019-05-01T18:51:16.555Z,13.31
2019-05-01T18:53:45.915Z,13.31
2019-05-01T18:56:15.314Z,13.29
2019-05-01T18:58:44.653Z,13.21
2019-05-01T19:01:13.969Z,13.21
2019-05-01T19:03:44.190Z,13.21
2019-05-01T19:06:15.646Z,13.19
2019-05-01T19:08:44.851Z,13.11
2019-05-01T19:11:14.494Z,13.17
2019-05-01T19:13:43.991Z,13.20
2019-05-01T19:16:13.449Z,13.19
2019-05-01T19:18:42.811Z,13.11
2019-05-01T19:21:13.738Z,13.07
2019-05-01T19:23:43.174Z,13.10
2019-05-01T19:26:13.194Z,13.11
2019-05-01T19:28:42.586Z,13.08
2019-05-01T19:31:11.990Z,13.06
2019-05-01T19:33:41.914Z,13.06
2019-05-01T19:36:11.480Z,13.05
2019-05-01T19:38:40.829Z,12.99
2019-05-01T19:41:14.097Z,12.96
2019-05-01T19:43:42.158Z,12.93
2019-05-01T19:46:11.824Z,12.87
2019-05-01T19:48:45.455Z,12.87
2019-05-01T19:51:12.338Z,12.86
2019-05-01T19:53:51.902Z,12.83
2019-05-01T19:56:21.550Z,12.84
2019-05-01T19:58:52.221Z,12.88
2019-05-01T20:01:23.023Z,12.80
2019-05-01T20:03:52.380Z,12.84
2019-05-01T20:06:21.701Z,12.80
2019-05-01T20:08:54.251Z,12.75
2019-05-01T20:11:23.655Z,12.71
2019-05-01T20:13:53.109Z,12.70
2019-05-01T20:16:23.158Z,12.70
2019-05-01T20:18:52.460Z,12.68
2019-05-01T20:21:21.909Z,12.72
2019-05-01T20:23:51.235Z,12.71
2019-05-01T20:26:20.585Z,12.75
2019-05-01T20:28:49.893Z,12.73
2019-05-01T20:31:20.910Z,12.71
2019-05-01T20:33:50.577Z,12.68
2019-05-01T20:36:19.912Z,12.72
2019-05-01T20:38:49.391Z,11.33
2019-05-01T20:41:18.725Z,12.74
2019-05-01T20:43:48.079Z,12.75
2019-05-01T20:46:21.531Z,12.76
2019-05-01T20:48:48.468Z,12.77
2019-05-01T20:51:20.114Z,12.67
2019-05-01T20:53:48.876Z,12.57
2019-05-01T20:56:27.210Z,12.56
2019-05-01T20:58:57.744Z,12.57
2019-05-01T21:01:29.544Z,12.54
2019-05-01T21:04:24.601Z,12.53
2019-05-01T21:07:15.656Z,12.57
2019-05-01T21:09:47.647Z,12.59
2019-05-01T21:12:15.653Z,12.56
2019-05-01T21:14:49.734Z,12.59
2019-05-01T21:17:17.176Z,12.53
2019-05-01T21:19:46.522Z,12.53
2019-05-01T21:22:15.859Z,12.48
2019-05-01T21:24:45.208Z,12.44
2019-05-01T21:27:14.779Z,12.40
2019-05-01T21:29:44.610Z,12.41
2019-05-01T21:32:18.240Z,12.42
2019-05-01T21:34:45.269Z,12.41
2019-05-01T21:37:14.630Z,12.40
2019-05-01T21:39:44.018Z,12.38
2019-05-01T21:42:16.069Z,12.39
2019-05-01T21:44:44.441Z,12.33
2019-05-01T21:47:14.053Z,12.31
2019-05-01T21:49:43.568Z,12.31
2019-05-01T21:52:13.611Z,12.27
2019-05-01T21:54:43.080Z,12.25
2019-05-01T21:57:17.426Z,12.15
2019-05-01T21:59:44.890Z,12.06
2019-05-01T22:02:14.745Z,12.05
2019-05-01T22:04:44.114Z,12.01
2019-05-01T22:07:13.450Z,11.95
2019-05-01T22:09:45.707Z,11.87
2019-05-01T22:12:14.469Z,11.79
2019-05-01T22:14:57.099Z,11.65
2019-05-01T22:17:56.233Z,11.56
2019-05-01T22:20:32.581Z,11.48
2019-05-01T22:23:04.350Z,11.38
2019-05-01T22:25:40.477Z,11.35
2019-05-01T22:28:18.836Z,11.22
2019-05-01T22:31:05.284Z,11.25
2019-05-01T22:33:35.792Z,11.25
2019-05-01T22:36:05.400Z,11.21
2019-05-01T22:38:34.753Z,11.20
2019-05-01T22:41:08.967Z,11.19
2019-05-01T22:43:38.430Z,11.22
2019-05-01T22:46:10.357Z,11.18
2019-05-01T22:48:39.724Z,11.20
2019-05-01T22:51:28.073Z,11.19
2019-05-01T22:53:57.389Z,11.20
2019-05-01T22:56:26.852Z,11.23
2019-05-01T22:58:56.242Z,11.24
2019-05-01T23:01:26.496Z,11.21
2019-05-01T23:04:01.329Z,11.24
2019-05-01T23:06:30.681Z,11.23
2019-05-01T23:09:00.109Z,11.19
2019-05-01T23:11:31.648Z,11.12
2019-05-01T23:14:01.067Z,11.09
2019-05-01T23:16:34.422Z,11.08
2019-05-01T23:19:03.754Z,11.12
2019-05-01T23:21:33.090Z,11.14
2019-05-01T23:24:03.556Z,11.16
2019-05-01T23:26:32.939Z,11.19
2019-05-01T23:29:02.295Z,11.19
2019-05-01T23:31:31.666Z,11.18
2019-05-01T23:34:01.007Z,11.16
2019-05-01T23:36:30.333Z,11.15
2019-05-01T23:38:59.666Z,11.15
2019-05-01T23:41:45.351Z,11.13
2019-05-01T23:44:03.442Z,11.14
2019-05-01T23:46:31.157Z,11.10
2019-05-01T23:49:00.473Z,11.04
2019-05-01T23:51:30.014Z,11.03
2019-05-01T23:53:59.340Z,10.87
2019-05-01T23:56:30.990Z,10.76
2019-05-01T23:58:59.837Z,10.72
